createdAt,value
2023-03-23T15:58:38.864Z,99844.78
2023-03-23T15:59:41.866Z,99850.44
2023-03-23T16:00:44.859Z,99843.16
2023-03-23T16:01:49.947Z,99844.30
2023-03-23T16:02:58.825Z,99849.11
2023-03-23T16:04:07.733Z,99848.55
2023-03-23T16:05:12.882Z,99843.95
2023-03-23T16:06:23.937Z,99849.52
2023-03-23T16:07:22.849Z,99845.59
2023-03-23T16:08:26.411Z,99849.40
2023-03-23T16:09:29.558Z,99846.02
2023-03-23T16:10:32.614Z,99852.22
2023-03-23T16:11:35.073Z,99842.81
2023-03-23T16:12:37.617Z,99844.80
2023-03-23T16:13:41.500Z,99851.84
2023-03-23T16:14:44.576Z,99846.48
2023-03-23T16:15:49.425Z,99844.23
2023-03-23T16:16:57.647Z,99853.41
2023-03-23T16:18:01.901Z,99851.28
2023-03-23T16:19:07.949Z,99851.28
2023-03-23T16:20:14.390Z,99848.75
2023-03-23T16:21:17.666Z,99846.36
2023-03-23T16:22:21.732Z,99848.34
2023-03-23T16:23:25.820Z,99850.17
2023-03-23T16:24:28.928Z,99852.46
2023-03-23T16:25:32.691Z,99844.43
2023-03-23T16:26:35.908Z,99847.95
2023-03-23T16:27:39.962Z,99849.23
2023-03-23T16:28:44.217Z,99855.42
2023-03-23T16:30:03.017Z,99845.14
2023-03-23T16:30:55.517Z,99843.45
2023-03-23T16:31:59.041Z,99845.75
2023-03-23T16:33:02.275Z,99850.82
2023-03-23T16:34:05.927Z,99851.24
2023-03-23T16:35:09.228Z,99850.54
2023-03-23T16:36:12.153Z,99854.48
2023-03-23T16:37:18.425Z,99842.09
2023-03-23T16:38:22.069Z,99850.26
2023-03-23T16:39:25.293Z,99856.74
2023-03-23T16:40:28.415Z,99852.23
2023-03-23T16:41:31.721Z,99852.94
2023-03-23T16:42:34.017Z,99855.05
2023-03-23T16:43:36.208Z,99852.23
2023-03-23T16:44:39.720Z,99849.27
2023-03-23T16:45:44.252Z,99844.06
2023-03-23T16:46:47.235Z,99844.91
2023-03-23T16:47:50.555Z,99851.39
2023-03-23T16:48:53.247Z,99845.33
2023-03-23T16:49:59.325Z,99850.69
2023-03-23T16:51:02.398Z,99844.62
2023-03-23T16:52:05.419Z,99849.27
2023-03-23T16:53:09.588Z,99852.40
2023-03-23T16:54:13.918Z,99852.82
2023-03-23T16:55:18.302Z,99846.77
2023-03-23T16:56:21.706Z,99849.72
2023-03-23T16:57:29.044Z,99850.03
2023-03-23T16:58:32.411Z,99848.87
2023-03-23T16:59:36.019Z,99844.09
2023-03-23T17:00:41.374Z,99839.86
2023-03-23T17:01:44.753Z,99850.00
2023-03-23T17:02:50.250Z,99852.69
2023-03-23T17:03:55.807Z,99846.48
2023-03-23T17:04:59.360Z,99847.33
2023-03-23T17:06:03.923Z,99846.06
2023-03-23T17:07:07.698Z,99847.75
2023-03-23T17:08:11.605Z,99848.73
2023-03-23T17:09:15.836Z,99853.23
2023-03-23T17:10:19.023Z,99843.27
2023-03-23T17:11:21.209Z,99843.13
2023-03-23T17:12:24.520Z,99841.30
2023-03-23T17:13:28.284Z,99849.60
2023-03-23T17:14:32.025Z,99847.91
2023-03-23T17:15:39.208Z,99844.95
2023-03-23T17:16:42.578Z,99853.53
2023-03-23T17:17:45.602Z,99846.65
2023-03-23T17:18:48.766Z,99850.70
2023-03-23T17:19:53.870Z,99851.55
2023-03-23T17:20:58.619Z,99850.56
2023-03-23T17:22:01.135Z,99852.53
2023-03-23T17:23:05.896Z,99849.58
2023-03-23T17:24:09.200Z,99838.34
2023-03-23T17:25:15.180Z,99842.14
2023-03-23T17:26:18.834Z,99847.35
2023-03-23T17:27:24.699Z,99847.91
2023-03-23T17:28:30.923Z,99841.30
2023-03-23T17:29:36.922Z,99841.30
2023-03-23T17:30:41.519Z,99844.68
2023-03-23T17:31:45.002Z,99845.23
2023-03-23T17:32:50.181Z,99847.20
2023-03-23T17:33:53.509Z,99853.53
2023-03-23T17:34:56.754Z,99846.36
2023-03-23T17:36:00.368Z,99847.34
2023-03-23T17:37:04.098Z,99841.85
2023-03-23T17:38:07.367Z,99853.67
2023-03-23T17:39:10.780Z,99850.86
2023-03-23T17:40:14.645Z,99849.17
2023-03-23T17:41:17.782Z,99851.98
2023-03-23T17:42:20.362Z,99847.93
2023-03-23T17:43:23.603Z,99847.79
2023-03-23T17:44:26.179Z,99846.09
2023-03-23T17:45:31.269Z,99848.34
2023-03-23T17:46:34.580Z,99851.59
2023-03-23T17:47:38.698Z,99850.60
2023-03-23T17:48:41.159Z,99848.20
2023-03-23T17:49:43.969Z,99841.59
2023-03-23T17:50:48.124Z,99844.09
2023-03-23T17:51:50.413Z,99852.97
2023-03-23T17:52:54.960Z,99846.77
2023-03-23T17:53:57.822Z,99848.20
2023-03-23T17:55:01.009Z,99845.67
2023-03-23T17:56:06.045Z,99843.84
2023-03-23T17:57:09.415Z,99845.39
2023-03-23T17:58:12.623Z,99847.22
2023-03-23T17:59:16.693Z,99848.06
2023-03-23T18:00:20.619Z,99851.02
2023-03-23T18:01:23.984Z,99851.72
2023-03-23T18:02:26.356Z,99848.20
2023-03-23T18:03:29.738Z,99842.02
2023-03-23T18:04:33.002Z,99846.79
2023-03-23T18:05:38.073Z,99849.19
2023-03-23T18:06:41.138Z,99844.25
2023-03-23T18:07:47.190Z,99854.10
2023-03-23T18:08:50.227Z,99846.53
2023-03-23T18:09:52.434Z,99848.19
2023-03-23T18:10:57.152Z,99845.68
2023-03-23T18:12:01.181Z,99844.53
2023-03-23T18:13:08.901Z,99844.66
2023-03-23T18:14:14.072Z,99840.33
2023-03-23T18:15:17.639Z,99841.31
2023-03-23T18:16:20.990Z,99845.52
2023-03-23T18:17:23.631Z,99850.02
2023-03-23T18:18:26.692Z,99843.01
2023-03-23T18:19:29.708Z,99838.50
2023-03-23T18:20:33.448Z,99840.47
2023-03-23T18:21:36.751Z,99843.28
2023-03-23T18:22:40.036Z,99843.69
2023-03-23T18:23:56.599Z,99833.27
2023-03-23T18:24:49.123Z,99838.05
2023-03-23T18:25:55.249Z,99836.63
2023-03-23T18:27:02.623Z,99835.38
2023-03-23T18:28:06.847Z,99837.78
2023-03-23T18:29:11.931Z,99839.61
2023-03-23T18:30:16.514Z,99828.34
2023-03-23T18:31:20.196Z,99835.95
2023-03-23T18:32:23.594Z,99842.14
2023-03-23T18:33:28.627Z,99835.95
2023-03-23T18:34:33.354Z,99833.85
2023-03-23T18:35:36.531Z,99833.72
2023-03-23T18:36:39.792Z,99830.73
2023-03-23T18:37:47.989Z,99841.87
2023-03-23T18:38:51.590Z,99831.72
2023-03-23T18:39:55.719Z,99825.83
2023-03-23T18:40:59.242Z,99832.16
2023-03-23T18:42:02.327Z,99830.74
2023-03-23T18:43:05.382Z,99832.43
2023-03-23T18:44:08.244Z,99830.61
2023-03-23T18:45:11.907Z,99828.91
2023-03-23T18:46:15.632Z,99825.80
2023-03-23T18:47:18.994Z,99829.77
2023-03-23T18:48:23.105Z,99825.80
2023-03-23T18:49:26.751Z,99826.65
2023-03-23T18:50:29.808Z,99827.94
2023-03-23T18:51:32.089Z,99829.59
2023-03-23T18:52:34.847Z,99823.98
2023-03-23T18:53:38.228Z,99829.19
2023-03-23T18:54:42.539Z,99821.03
2023-03-23T18:55:46.298Z,99821.44
2023-03-23T18:56:49.991Z,99831.15
2023-03-23T18:57:53.181Z,99821.98
2023-03-23T18:58:57.491Z,99824.66
2023-03-23T19:00:01.109Z,99827.63
2023-03-23T19:01:08.363Z,99830.00
2023-03-23T19:02:13.310Z,99822.29
2023-03-23T19:03:17.399Z,99825.23
2023-03-23T19:04:22.462Z,99833.37
2023-03-23T19:05:26.026Z,99827.45
2023-03-23T19:06:32.333Z,99827.14
2023-03-23T19:07:36.170Z,99825.14
2023-03-23T19:08:39.308Z,99825.41
2023-03-23T19:09:43.850Z,99829.62
2023-03-23T19:10:46.949Z,99824.70
2023-03-23T19:11:50.184Z,99834.25
2023-03-23T19:12:54.350Z,99821.17
2023-03-23T19:14:02.837Z,99825.80
2023-03-23T19:15:02.860Z,99827.33
2023-03-23T19:16:08.169Z,99819.59
2023-03-23T19:17:11.822Z,99818.03
2023-03-23T19:18:14.131Z,99820.38
2023-03-23T19:19:17.265Z,99823.47
2023-03-23T19:20:37.447Z,99824.13
2023-03-23T19:21:29.035Z,99819.11
2023-03-23T19:22:33.410Z,99818.84
2023-03-23T19:23:38.557Z,99818.00
2023-03-23T19:24:42.843Z,99814.75
2023-03-23T19:25:46.166Z,99809.41
2023-03-23T19:26:58.809Z,99809.67
2023-03-23T19:30:18.935Z,99811.47
2023-03-23T19:31:25.190Z,99803.98
2023-03-23T19:32:28.337Z,99810.97
2023-03-23T19:33:31.795Z,99809.15
2023-03-23T19:34:34.868Z,99806.61
2023-03-23T19:35:39.084Z,99808.56
2023-03-23T19:36:42.249Z,99805.05
2023-03-23T19:37:47.429Z,99805.56
2023-03-23T19:38:51.111Z,99813.17
2023-03-23T19:39:56.314Z,99815.72
2023-03-23T19:41:03.789Z,99813.17
2023-03-23T19:42:07.808Z,99814.16
2023-03-23T19:43:11.021Z,99814.67
2023-03-23T19:44:17.972Z,99813.69
2023-03-23T19:45:21.796Z,99813.44
2023-03-23T19:46:25.992Z,99819.03
2023-03-23T19:47:29.847Z,99816.78
2023-03-23T19:48:33.793Z,99815.08
2023-03-23T19:49:36.573Z,99810.59
2023-03-23T19:50:42.912Z,99814.11
2023-03-23T19:51:47.435Z,99811.31
2023-03-23T19:52:50.297Z,99809.49
2023-03-23T19:53:56.162Z,99811.19
2023-03-23T19:55:00.120Z,99817.33
2023-03-23T19:56:04.924Z,99810.59
2023-03-23T19:57:09.605Z,99812.93
2023-03-23T19:58:14.041Z,99815.98
2023-03-23T19:59:17.580Z,99805.47
2023-03-23T20:00:19.783Z,99810.80
2023-03-23T20:01:27.222Z,99806.16
2023-03-23T20:02:30.591Z,99807.67
2023-03-23T20:03:34.007Z,99804.50
2023-03-23T20:04:37.744Z,99803.19
2023-03-23T20:05:41.835Z,99799.55
2023-03-23T20:06:45.910Z,99805.59
2023-03-23T20:07:51.955Z,99796.75
2023-03-23T20:08:56.850Z,99794.21
2023-03-23T20:10:00.509Z,99801.49
2023-03-23T20:11:06.176Z,99795.31
2023-03-23T20:12:09.824Z,99800.65
2023-03-23T20:13:13.360Z,99795.31
2023-03-23T20:15:21.842Z,99783.47
2023-03-23T20:16:25.943Z,99792.05
2023-03-23T20:17:29.081Z,99791.00
2023-03-23T20:18:32.576Z,99796.08
2023-03-23T20:19:36.635Z,99794.26
2023-03-23T20:20:39.980Z,99796.08
2023-03-23T20:21:42.591Z,99796.92
2023-03-23T20:22:47.560Z,99794.89
2023-03-23T20:23:55.941Z,99797.09
2023-03-23T20:25:00.646Z,99801.07
2023-03-23T20:26:07.727Z,99785.20
2023-03-23T20:27:13.801Z,99790.66
2023-03-23T20:28:18.757Z,99788.59
2023-03-23T20:29:21.144Z,99794.13
2023-03-23T20:30:24.483Z,99784.91
2023-03-23T20:31:29.803Z,99793.37
2023-03-23T20:32:34.742Z,99790.57
2023-03-23T20:33:41.307Z,99784.83
2023-03-23T20:34:48.252Z,99792.14
2023-03-23T20:35:52.463Z,99786.80
2023-03-23T20:37:00.286Z,99782.31
2023-03-23T20:38:03.500Z,99783.42
2023-03-23T20:39:14.460Z,99785.63
2023-03-23T20:40:18.138Z,99787.78
2023-03-23T20:41:21.248Z,99784.70
2023-03-23T20:42:24.509Z,99785.11
2023-03-23T20:43:29.673Z,99789.47
2023-03-23T20:44:36.374Z,99788.34
2023-03-23T20:45:39.843Z,99781.86
2023-03-23T20:46:45.262Z,99776.66
2023-03-23T20:47:48.338Z,99775.67
2023-03-23T20:48:52.940Z,99770.47
2023-03-23T20:49:56.379Z,99773.86
2023-03-23T20:51:01.762Z,99771.06
2023-03-23T20:52:09.170Z,99768.78
2023-03-23T20:53:12.308Z,99767.09
2023-03-23T20:54:16.276Z,99770.47
2023-03-23T20:55:19.591Z,99772.30
2023-03-23T20:56:23.000Z,99770.64
2023-03-23T20:57:29.070Z,99776.98
2023-03-23T20:58:33.561Z,99770.94
2023-03-23T20:59:36.641Z,99770.80
2023-03-23T21:00:40.548Z,99764.03
2023-03-23T21:01:48.176Z,99767.09
2023-03-23T21:02:53.597Z,99768.91
2023-03-23T21:03:58.118Z,99766.50
2023-03-23T21:05:02.486Z,99765.19
2023-03-23T21:06:08.173Z,99780.34
2023-03-23T21:07:12.621Z,99770.05
2023-03-23T21:08:16.678Z,99763.75
2023-03-23T21:09:20.675Z,99766.67
2023-03-23T21:10:25.639Z,99771.16
2023-03-23T21:11:29.237Z,99768.05
2023-03-23T21:12:32.448Z,99776.61
2023-03-23T21:13:35.944Z,99771.81
2023-03-23T21:14:39.859Z,99770.38
2023-03-23T21:15:44.036Z,99766.27
2023-03-23T21:16:47.492Z,99773.11
2023-03-23T21:17:50.919Z,99769.84
2023-03-23T21:18:54.461Z,99767.80
2023-03-23T21:19:57.784Z,99766.27
2023-03-23T21:21:03.189Z,99770.03
2023-03-23T21:22:07.346Z,99761.25
2023-03-23T21:23:12.890Z,99754.80
2023-03-23T21:24:19.461Z,99761.44
2023-03-23T21:25:22.524Z,99758.18
2023-03-23T21:26:30.417Z,99762.34
2023-03-23T21:27:33.650Z,99759.80
2023-03-23T21:28:37.182Z,99762.84
2023-03-23T21:29:40.456Z,99761.51
2023-03-23T21:30:45.589Z,99759.70
2023-03-23T21:32:06.894Z,99763.73
2023-03-23T21:32:58.898Z,99755.37
2023-03-23T21:34:05.557Z,99763.13
2023-03-23T21:35:08.314Z,99755.63
2023-03-23T21:36:11.980Z,99758.44
2023-03-23T21:37:15.792Z,99758.05
2023-03-23T21:38:21.150Z,99757.59
2023-03-23T21:39:26.634Z,99758.81
2023-03-23T21:40:29.843Z,99756.99
2023-03-23T21:41:42.111Z,99760.26
2023-03-23T21:42:42.499Z,99766.91
2023-03-23T21:43:46.215Z,99761.23
2023-03-23T21:44:49.981Z,99756.63
2023-03-23T21:45:57.004Z,99766.06
2023-03-23T21:47:01.939Z,99757.36
2023-03-23T21:48:07.314Z,99753.84
2023-03-23T21:49:10.604Z,99758.45
2023-03-23T21:50:16.731Z,99758.23
2023-03-23T21:51:21.811Z,99752.06
2023-03-23T21:52:25.996Z,99752.55
2023-03-23T21:53:32.085Z,99758.59
2023-03-23T21:54:35.225Z,99752.09
2023-03-23T21:55:38.945Z,99747.34
2023-03-23T21:56:42.995Z,99745.92
2023-03-23T21:57:47.983Z,99752.34
2023-03-23T21:58:51.485Z,99748.95
2023-03-23T21:59:54.805Z,99747.38
2023-03-23T22:01:00.899Z,99748.70
2023-03-23T22:02:04.569Z,99747.74
2023-03-23T22:03:08.816Z,99744.11
2023-03-23T22:04:12.320Z,99746.62
2023-03-23T22:05:15.871Z,99751.94
2023-03-23T22:06:21.597Z,99747.34
2023-03-23T22:07:23.881Z,99758.11
2023-03-23T22:08:29.346Z,99752.79
2023-03-23T22:09:31.563Z,99755.72
2023-03-23T22:10:34.680Z,99759.47
2023-03-23T22:11:39.350Z,99762.98
2023-03-23T22:12:42.574Z,99762.73
2023-03-23T22:13:45.952Z,99760.44
2023-03-23T22:14:49.317Z,99757.77
2023-03-23T22:15:51.657Z,99766.84
2023-03-23T22:16:56.870Z,99754.27
2023-03-23T22:17:59.992Z,99764.05
2023-03-23T22:19:03.733Z,99754.51
2023-03-23T22:20:07.989Z,99755.36
2023-03-23T22:21:12.176Z,99752.22
2023-03-23T22:22:14.604Z,99752.09
2023-03-23T22:23:17.824Z,99764.16
2023-03-23T22:24:21.132Z,99759.11
2023-03-23T22:25:25.418Z,99762.47
2023-03-23T22:26:29.357Z,99763.20
2023-03-23T22:27:34.412Z,99765.49
2023-03-23T22:28:37.706Z,99764.28
2023-03-23T22:29:41.350Z,99761.34
2023-03-23T22:30:45.732Z,99765.59
2023-03-23T22:31:49.281Z,99763.20
2023-03-23T22:32:53.550Z,99762.08
2023-03-23T22:33:57.135Z,99756.18
2023-03-23T22:35:02.009Z,99767.67
2023-03-23T22:36:07.708Z,99762.73
2023-03-23T22:37:11.307Z,99757.68
2023-03-23T22:38:15.548Z,99768.91
2023-03-23T22:39:17.727Z,99762.11
2023-03-23T22:40:24.687Z,99759.08
2023-03-23T22:41:32.589Z,99761.50
2023-03-23T22:42:37.315Z,99750.98
2023-03-23T22:43:39.708Z,99759.08
2023-03-23T22:44:42.773Z,99759.08
2023-03-23T22:45:46.129Z,99759.69
2023-03-23T22:46:49.434Z,99748.92
2023-03-23T22:47:51.923Z,99757.14
2023-03-23T22:48:55.389Z,99764.04
2023-03-23T22:49:59.201Z,99760.92
2023-03-23T22:51:03.347Z,99766.48
2023-03-23T22:52:06.837Z,99768.75
2023-03-23T22:53:10.024Z,99758.63
2023-03-23T22:54:13.121Z,99755.72
2023-03-23T22:55:16.352Z,99766.82
2023-03-23T22:56:19.866Z,99760.08
2023-03-23T22:57:23.153Z,99761.64
2023-03-23T22:58:26.082Z,99764.79
2023-03-23T22:59:30.438Z,99761.05
2023-03-23T23:00:33.516Z,99754.27
2023-03-23T23:01:36.158Z,99753.30
2023-03-23T23:02:39.379Z,99750.16
2023-03-23T23:03:42.736Z,99743.87
2023-03-23T23:04:47.587Z,99753.30
2023-03-23T23:05:53.163Z,99755.00
2023-03-23T23:07:03.191Z,99753.42
2023-03-23T23:07:59.927Z,99756.08
2023-03-23T23:09:04.148Z,99765.98
2023-03-23T23:10:08.268Z,99759.22
2023-03-23T23:11:12.989Z,99753.42
2023-03-23T23:12:16.129Z,99762.25
2023-03-23T23:13:22.653Z,99762.02
2023-03-23T23:14:26.085Z,99763.70
2023-03-23T23:15:29.325Z,99762.73
2023-03-23T23:16:32.855Z,99752.09
2023-03-23T23:17:37.817Z,99759.80
2023-03-23T23:18:43.367Z,99770.45
2023-03-23T23:19:49.906Z,99763.31
2023-03-23T23:20:58.295Z,99763.31
2023-03-23T23:22:12.625Z,99764.16
2023-03-23T23:23:05.706Z,99762.47
2023-03-23T23:24:09.394Z,99760.20
2023-03-23T23:25:12.644Z,99766.09
2023-03-23T23:26:16.315Z,99757.42
2023-03-23T23:27:18.720Z,99757.66
2023-03-23T23:28:24.028Z,99761.28
2023-03-23T23:29:27.069Z,99760.06
2023-03-23T23:30:30.403Z,99763.70
2023-03-23T23:31:35.736Z,99751.73
2023-03-23T23:32:38.083Z,99757.77
2023-03-23T23:33:43.260Z,99758.49
2023-03-23T23:34:46.190Z,99752.94
2023-03-23T23:35:49.577Z,99739.27
2023-03-23T23:36:52.795Z,99741.81
2023-03-23T23:37:57.103Z,99739.88
2023-03-23T23:39:01.528Z,99733.95
2023-03-23T23:40:08.555Z,99734.89
2023-03-23T23:41:11.050Z,99731.98
2023-03-23T23:42:14.222Z,99730.05
2023-03-23T23:43:17.941Z,99733.44
2023-03-23T23:44:21.405Z,99732.71
2023-03-23T23:45:23.862Z,99739.84
2023-03-23T23:46:27.058Z,99730.30
2023-03-23T23:47:30.414Z,99738.06
2023-03-23T23:48:34.751Z,99740.48
2023-03-23T23:49:38.087Z,99732.74
2023-03-23T23:50:44.349Z,99731.50
2023-03-23T23:51:48.067Z,99735.86
2023-03-23T23:52:53.624Z,99739.36
2023-03-23T23:53:59.365Z,99741.66
2023-03-23T23:55:02.776Z,99738.88
2023-03-23T23:56:09.078Z,99743.84
2023-03-23T23:57:12.171Z,99744.56
2023-03-23T23:58:15.495Z,99738.24
2023-03-23T23:59:18.528Z,99740.21
